createdAt,value
2017-09-16T00:00:44.998Z,99.90
2017-09-16T00:03:23.200Z,99.90
2017-09-16T00:05:50.790Z,99.90
2017-09-16T00:08:18.355Z,99.90
2017-09-16T00:10:45.940Z,99.90
2017-09-16T00:13:14.265Z,99.90
2017-09-16T00:15:41.844Z,99.90
2017-09-16T00:18:09.487Z,99.90
2017-09-16T00:20:37.059Z,99.90
2017-09-16T00:23:04.662Z,99.90
2017-09-16T00:25:33.006Z,99.90
2017-09-16T00:28:00.564Z,99.90
2017-09-16T00:30:28.143Z,99.90
2017-09-16T00:32:55.742Z,99.90
2017-09-16T00:35:23.317Z,99.90
2017-09-16T00:37:50.910Z,99.90
2017-09-16T00:40:18.507Z,99.90
2017-09-16T00:42:46.591Z,99.90
2017-09-16T00:45:15.790Z,99.90
2017-09-16T00:47:44.140Z,99.90
2017-09-16T00:50:11.718Z,99.90
2017-09-16T00:52:39.467Z,99.90
2017-09-16T00:55:07.026Z,99.90
2017-09-16T00:57:34.681Z,99.90
2017-09-16T01:00:02.242Z,99.90
2017-09-16T01:02:29.843Z,99.90
2017-09-16T01:04:57.370Z,99.90
2017-09-16T01:07:24.955Z,99.90
2017-09-16T01:09:53.311Z,99.90
2017-09-16T01:12:20.874Z,99.90
2017-09-16T01:14:48.440Z,99.90
2017-09-16T01:17:15.994Z,99.90
2017-09-16T01:19:43.568Z,99.90
2017-09-16T01:22:11.107Z,99.90
2017-09-16T01:24:38.679Z,99.90
2017-09-16T01:27:06.310Z,99.90
2017-09-16T01:29:33.853Z,99.90
2017-09-16T01:32:01.422Z,99.90
2017-09-16T01:34:29.006Z,99.90
2017-09-16T01:36:56.585Z,99.90
2017-09-16T01:39:24.159Z,99.90
2017-09-16T01:41:51.729Z,99.90
2017-09-16T01:44:19.278Z,99.90
2017-09-16T01:46:47.854Z,99.90
2017-09-16T01:49:15.414Z,99.90
2017-09-16T01:51:42.974Z,99.90
2017-09-16T01:54:10.551Z,99.90
2017-09-16T01:56:38.187Z,99.90
2017-09-16T01:59:05.734Z,99.90
2017-09-16T02:01:33.311Z,99.90
2017-09-16T02:04:00.880Z,99.90
2017-09-16T02:06:28.455Z,99.90
2017-09-16T02:08:56.095Z,99.90
2017-09-16T02:11:23.672Z,99.90
2017-09-16T02:13:51.251Z,99.90
2017-09-16T02:16:18.805Z,99.90
2017-09-16T02:18:47.143Z,99.90
2017-09-16T02:21:14.944Z,99.90
2017-09-16T02:23:43.274Z,99.90
2017-09-16T02:26:10.845Z,99.90
2017-09-16T02:28:38.405Z,99.90
2017-09-16T02:31:05.985Z,99.90
2017-09-16T02:33:33.577Z,99.90
2017-09-16T02:36:01.303Z,99.90
2017-09-16T02:38:28.869Z,99.90
2017-09-16T02:40:56.437Z,99.90
2017-09-16T02:43:24.002Z,99.90
2017-09-16T02:45:51.653Z,99.90
2017-09-16T02:48:19.236Z,99.90
2017-09-16T02:50:46.806Z,99.90
2017-09-16T02:53:14.355Z,99.90
2017-09-16T02:55:42.778Z,99.90
2017-09-16T02:58:10.341Z,99.90
2017-09-16T03:00:38.690Z,99.90
2017-09-16T03:03:06.251Z,99.90
2017-09-16T03:05:33.820Z,99.90
2017-09-16T03:08:01.403Z,99.90
2017-09-16T03:10:28.958Z,99.90
2017-09-16T03:12:57.407Z,99.90
2017-09-16T03:15:25.110Z,99.90
2017-09-16T03:17:53.433Z,99.90
2017-09-16T03:20:21.011Z,99.90
2017-09-16T03:22:48.555Z,99.90
2017-09-16T03:25:16.115Z,99.90
2017-09-16T03:27:43.730Z,99.90
2017-09-16T03:30:12.067Z,99.90
2017-09-16T03:32:39.642Z,99.90
2017-09-16T03:35:07.938Z,99.90
2017-09-16T03:37:35.514Z,99.90
2017-09-16T03:40:03.072Z,99.90
2017-09-16T03:42:30.642Z,99.90
2017-09-16T03:44:58.977Z,99.90
2017-09-16T03:47:26.560Z,99.90
2017-09-16T03:49:54.146Z,99.90
2017-09-16T03:52:22.482Z,99.90
2017-09-16T03:54:50.098Z,99.90
2017-09-16T03:57:18.446Z,99.90
2017-09-16T03:59:46.061Z,99.90
2017-09-16T04:02:26.498Z,99.90
2017-09-16T04:04:54.821Z,99.90
2017-09-16T04:07:22.392Z,99.90
2017-09-16T04:09:49.970Z,99.90
2017-09-16T04:12:17.537Z,99.90
2017-09-16T04:14:45.211Z,99.90
2017-09-16T04:17:13.694Z,99.90
2017-09-16T04:19:41.296Z,99.90
2017-09-16T04:22:08.875Z,99.90
2017-09-16T04:24:36.453Z,99.90
2017-09-16T04:27:04.063Z,99.90
2017-09-16T04:29:32.375Z,99.90
2017-09-16T04:31:59.958Z,99.90
2017-09-16T04:34:27.507Z,99.90
2017-09-16T04:36:55.086Z,99.90
2017-09-16T04:39:23.413Z,99.90
2017-09-16T04:41:51.746Z,99.90
2017-09-16T04:44:19.333Z,99.90
2017-09-16T04:46:46.898Z,99.90
2017-09-16T04:49:15.362Z,99.90
2017-09-16T04:51:43.192Z,99.90
2017-09-16T04:54:10.730Z,99.90
2017-09-16T04:56:56.078Z,99.90
2017-09-16T04:59:23.635Z,99.90
2017-09-16T05:01:51.193Z,99.90
2017-09-16T05:04:18.791Z,99.90
2017-09-16T05:06:46.352Z,99.90
2017-09-16T05:09:13.927Z,99.90
2017-09-16T05:11:41.491Z,99.90
2017-09-16T05:14:09.655Z,99.90
2017-09-16T05:16:37.224Z,99.90
2017-09-16T05:19:04.794Z,99.90
2017-09-16T05:21:32.380Z,99.90
2017-09-16T05:23:59.959Z,99.90
2017-09-16T05:26:27.690Z,99.90
2017-09-16T05:28:55.255Z,99.90
2017-09-16T05:31:22.816Z,99.90
2017-09-16T05:33:50.390Z,99.90
2017-09-16T05:36:17.949Z,99.90
2017-09-16T05:38:45.531Z,99.90
2017-09-16T05:41:13.259Z,99.90
2017-09-16T05:43:40.851Z,99.90
2017-09-16T05:46:08.562Z,99.90
2017-09-16T05:48:36.938Z,99.90
2017-09-16T05:51:04.513Z,99.90
2017-09-16T05:53:32.849Z,99.90
2017-09-16T05:56:00.446Z,99.90
2017-09-16T05:58:28.871Z,99.90
2017-09-16T06:00:56.432Z,99.90
2017-09-16T06:03:24.019Z,99.90
2017-09-16T06:05:51.574Z,99.90
2017-09-16T06:08:19.162Z,99.90
2017-09-16T06:10:46.722Z,99.90
2017-09-16T06:13:14.321Z,99.90
2017-09-16T06:15:42.651Z,99.90
2017-09-16T06:18:10.236Z,99.90
2017-09-16T06:20:37.801Z,99.90
2017-09-16T06:23:06.134Z,99.90
2017-09-16T06:25:33.730Z,99.90
2017-09-16T06:28:01.311Z,99.90
2017-09-16T06:30:29.714Z,99.90
2017-09-16T06:32:57.290Z,99.90
2017-09-16T06:35:24.891Z,99.90
2017-09-16T06:37:52.474Z,99.90
2017-09-16T06:40:20.822Z,99.90
2017-09-16T06:42:48.539Z,99.90
2017-09-16T06:45:16.103Z,99.90
2017-09-16T06:47:43.888Z,99.90
2017-09-16T06:50:11.474Z,99.90
2017-09-16T06:52:39.056Z,99.90
2017-09-16T06:58:06.227Z,99.90
2017-09-16T07:00:33.793Z,99.90
2017-09-16T07:03:01.463Z,99.90
2017-09-16T07:05:29.034Z,99.90
2017-09-16T07:07:57.390Z,99.90
2017-09-16T07:10:25.752Z,99.90
2017-09-16T07:12:53.353Z,99.90
2017-09-16T07:15:20.947Z,99.90
2017-09-16T07:17:48.536Z,99.90
2017-09-16T07:20:16.125Z,99.90
2017-09-16T07:22:43.732Z,99.90
2017-09-16T07:25:30.188Z,99.90
2017-09-16T07:27:57.766Z,99.90
2017-09-16T07:30:26.098Z,99.90
2017-09-16T07:32:53.705Z,99.90
2017-09-16T07:35:22.166Z,99.90
2017-09-16T07:37:49.915Z,99.90
2017-09-16T07:40:17.473Z,99.90
2017-09-16T07:42:45.122Z,99.90
2017-09-16T07:45:12.699Z,99.90
2017-09-16T07:47:40.340Z,99.90
2017-09-16T07:50:07.925Z,99.90
2017-09-16T07:52:35.622Z,99.90
2017-09-16T07:55:03.205Z,99.90
2017-09-16T07:57:30.776Z,99.90
2017-09-16T07:59:58.372Z,99.90
2017-09-16T08:02:26.032Z,99.90
2017-09-16T08:04:53.685Z,99.90
2017-09-16T08:07:21.257Z,99.90
2017-09-16T08:09:48.858Z,99.90
2017-09-16T08:12:16.451Z,99.90
2017-09-16T08:14:44.231Z,99.90
2017-09-16T08:17:11.828Z,99.90
2017-09-16T08:19:39.538Z,99.90
2017-09-16T08:22:07.132Z,99.90
2017-09-16T08:24:34.687Z,99.90
2017-09-16T08:27:02.311Z,99.90
2017-09-16T08:29:30.638Z,99.90
2017-09-16T08:31:58.209Z,99.90
2017-09-16T08:34:25.796Z,99.90
2017-09-16T08:36:54.147Z,99.90
2017-09-16T08:39:21.759Z,99.90
2017-09-16T08:41:50.136Z,99.90
2017-09-16T08:44:18.475Z,99.90
2017-09-16T08:46:46.064Z,99.90
2017-09-16T08:49:13.975Z,99.90
2017-09-16T08:51:41.565Z,99.90
2017-09-16T08:54:09.206Z,99.90
2017-09-16T08:56:36.824Z,99.90
2017-09-16T08:59:05.233Z,99.90
2017-09-16T09:01:32.911Z,99.90
2017-09-16T09:04:00.482Z,99.90
2017-09-16T09:06:28.046Z,99.90
2017-09-16T09:08:55.627Z,99.90
2017-09-16T09:11:23.218Z,99.90
2017-09-16T09:13:51.565Z,99.90
2017-09-16T09:16:19.162Z,99.90
2017-09-16T09:18:47.493Z,99.90
2017-09-16T09:21:15.067Z,99.90
2017-09-16T09:23:42.660Z,99.90
2017-09-16T09:26:10.384Z,99.90
2017-09-16T09:28:37.970Z,99.90
2017-09-16T09:31:05.582Z,99.90
2017-09-16T09:33:33.234Z,99.90
2017-09-16T09:36:01.576Z,92.10
2017-09-16T09:38:29.143Z,93.50
2017-09-16T09:40:56.963Z,98.00
2017-09-16T09:43:24.958Z,98.50
2017-09-16T09:45:53.307Z,93.00
2017-09-16T09:48:21.674Z,98.50
2017-09-16T09:50:49.628Z,98.70
2017-09-16T09:53:20.164Z,96.10
2017-09-16T09:55:48.647Z,90.70
2017-09-16T09:58:17.960Z,89.30
2017-09-16T10:00:45.668Z,91.00
2017-09-16T10:03:13.673Z,95.30
2017-09-16T10:05:42.174Z,67.40
2017-09-16T10:08:11.752Z,79.40
2017-09-16T10:10:39.645Z,78.90
2017-09-16T10:13:09.155Z,61.90
2017-09-16T10:15:36.717Z,61.50
2017-09-16T10:18:04.371Z,78.20
2017-09-16T10:20:31.940Z,83.80
2017-09-16T10:23:00.308Z,93.50
2017-09-16T10:25:27.946Z,93.60
2017-09-16T10:27:55.519Z,96.30
2017-09-16T10:30:23.179Z,96.40
2017-09-16T10:32:50.740Z,96.40
2017-09-16T10:35:19.812Z,92.60
2017-09-16T10:37:47.464Z,97.30
2017-09-16T10:40:15.046Z,99.90
2017-09-16T10:42:42.623Z,99.90
2017-09-16T10:45:10.231Z,99.90
2017-09-16T10:47:38.635Z,99.90
2017-09-16T10:50:07.031Z,99.90
2017-09-16T10:52:34.589Z,99.90
2017-09-16T10:55:02.188Z,99.90
2017-09-16T10:57:29.766Z,99.90
2017-09-16T10:59:57.346Z,99.90
2017-09-16T11:02:24.956Z,99.90
2017-09-16T11:04:52.526Z,99.90
2017-09-16T11:07:20.114Z,99.70
2017-09-16T11:09:47.680Z,93.10
2017-09-16T11:12:15.253Z,94.30
2017-09-16T11:14:43.618Z,98.70
2017-09-16T11:17:11.170Z,98.90
2017-09-16T11:19:38.902Z,99.90
2017-09-16T11:22:06.572Z,99.90
2017-09-16T11:24:34.126Z,99.90
2017-09-16T11:27:01.791Z,99.90
2017-09-16T11:29:29.358Z,99.90
2017-09-16T11:31:56.914Z,99.90
2017-09-16T11:34:24.513Z,99.90
2017-09-16T11:36:52.083Z,99.90
2017-09-16T11:39:19.762Z,99.90
2017-09-16T11:41:48.143Z,99.90
2017-09-16T11:44:15.741Z,99.90
2017-09-16T11:46:43.311Z,99.90
2017-09-16T11:49:10.975Z,99.10
2017-09-16T11:51:38.666Z,99.00
2017-09-16T11:54:06.253Z,99.90
2017-09-16T11:56:43.847Z,99.90
2017-09-16T11:59:11.427Z,99.90
2017-09-16T12:01:39.774Z,99.90
2017-09-16T12:04:07.355Z,99.90
2017-09-16T12:06:34.914Z,99.90
2017-09-16T12:09:02.508Z,99.90
2017-09-16T12:11:30.971Z,99.90
2017-09-16T12:13:59.372Z,99.90
2017-09-16T12:16:26.986Z,99.90
2017-09-16T12:18:55.362Z,99.90
2017-09-16T12:21:23.988Z,99.40
2017-09-16T12:23:51.541Z,99.50
2017-09-16T12:26:19.111Z,99.90
2017-09-16T12:28:46.692Z,99.90
2017-09-16T12:31:14.275Z,99.90
2017-09-16T12:33:41.907Z,99.90
2017-09-16T12:36:09.478Z,99.90
2017-09-16T12:38:37.083Z,99.90
2017-09-16T12:41:05.455Z,99.90
2017-09-16T12:43:33.026Z,99.90
2017-09-16T12:46:00.725Z,99.90
2017-09-16T12:48:28.496Z,99.90
2017-09-16T12:50:56.187Z,99.90
2017-09-16T12:53:23.833Z,99.90
2017-09-16T12:55:51.423Z,99.90
2017-09-16T12:58:19.021Z,99.90
2017-09-16T13:00:46.698Z,99.90
2017-09-16T13:03:15.022Z,99.90
2017-09-16T13:05:42.764Z,99.90
2017-09-16T13:08:10.450Z,99.90
2017-09-16T13:10:38.106Z,99.90
2017-09-16T13:13:05.725Z,99.90
2017-09-16T13:15:33.319Z,99.90
2017-09-16T13:18:01.639Z,99.90
2017-09-16T13:20:29.981Z,99.90
2017-09-16T13:22:57.843Z,99.00
2017-09-16T13:25:25.634Z,99.60
2017-09-16T13:27:53.214Z,95.10
2017-09-16T13:30:20.817Z,92.80
2017-09-16T13:32:48.434Z,94.80
2017-09-16T13:35:16.002Z,92.70
2017-09-16T13:37:43.583Z,93.60
2017-09-16T13:40:11.150Z,99.70
2017-09-16T13:42:38.725Z,99.90
2017-09-16T13:45:06.294Z,82.50
2017-09-16T13:47:34.615Z,70.80
2017-09-16T13:50:02.207Z,70.90
2017-09-16T13:52:29.749Z,72.50
2017-09-16T13:54:57.330Z,73.10
2017-09-16T13:57:24.897Z,61.30
2017-09-16T13:59:52.485Z,71.10
2017-09-16T14:02:20.837Z,90.00
2017-09-16T14:04:49.170Z,60.70
2017-09-16T14:07:16.744Z,60.60
2017-09-16T14:09:44.342Z,58.50
2017-09-16T14:12:11.920Z,66.60
2017-09-16T14:14:40.263Z,86.90
2017-09-16T14:17:07.828Z,87.40
2017-09-16T14:19:35.424Z,90.30
2017-09-16T14:22:02.998Z,87.70
2017-09-16T14:24:31.361Z,95.50
2017-09-16T14:26:58.943Z,95.30
2017-09-16T14:29:29.063Z,91.10
2017-09-16T14:31:57.392Z,92.20
2017-09-16T14:34:24.958Z,91.90
2017-09-16T14:36:52.555Z,91.20
2017-09-16T14:39:20.123Z,80.50
2017-09-16T14:41:48.480Z,97.80
2017-09-16T14:44:16.076Z,97.80
2017-09-16T14:46:44.430Z,96.60
2017-09-16T14:49:12.001Z,96.80
2017-09-16T14:51:40.315Z,99.20
2017-09-16T14:54:08.007Z,99.20
2017-09-16T14:56:35.584Z,99.90
2017-09-16T14:59:03.166Z,99.90
2017-09-16T15:01:30.766Z,99.90
2017-09-16T15:03:58.326Z,99.90
2017-09-16T15:06:27.654Z,99.90
2017-09-16T15:08:55.248Z,99.90
2017-09-16T15:11:22.830Z,99.90
2017-09-16T15:13:50.415Z,99.90
2017-09-16T15:16:18.022Z,99.90
2017-09-16T15:18:45.597Z,99.90
2017-09-16T15:21:13.170Z,99.90
2017-09-16T15:23:40.770Z,99.90
2017-09-16T15:26:08.372Z,99.90
2017-09-16T15:28:35.951Z,99.90
2017-09-16T15:31:03.681Z,99.90
2017-09-16T15:33:32.040Z,99.90
2017-09-16T15:35:59.659Z,99.90
2017-09-16T15:38:27.242Z,99.90
2017-09-16T15:40:54.870Z,99.90
2017-09-16T15:43:22.474Z,99.90
2017-09-16T15:45:50.083Z,99.90
2017-09-16T15:48:17.797Z,99.90
2017-09-16T15:50:46.205Z,99.90
2017-09-16T15:53:14.596Z,99.90
2017-09-16T15:55:42.950Z,99.90
2017-09-16T15:58:10.603Z,99.90
2017-09-16T16:00:38.258Z,99.90
2017-09-16T16:03:06.642Z,99.90
2017-09-16T16:05:34.249Z,99.90
2017-09-16T16:08:02.730Z,99.90
2017-09-16T16:10:30.350Z,99.90
2017-09-16T16:12:58.713Z,99.90
2017-09-16T16:15:26.317Z,99.90
2017-09-16T16:26:33.821Z,99.90
2017-09-16T16:29:01.400Z,99.90
2017-09-16T16:31:29.004Z,99.90
2017-09-16T16:33:57.354Z,99.90
2017-09-16T16:36:25.740Z,99.90
2017-09-16T16:38:53.365Z,99.90
2017-09-16T16:41:20.955Z,99.90
2017-09-16T16:43:49.363Z,99.90
2017-09-16T16:46:17.739Z,99.90
2017-09-16T16:48:46.108Z,99.90
2017-09-16T16:51:13.713Z,99.90
2017-09-16T17:16:46.622Z,99.90
2017-09-16T17:19:14.351Z,99.90
2017-09-16T17:21:41.968Z,99.90
2017-09-16T17:24:10.355Z,99.90
2017-09-16T17:26:38.725Z,99.90
2017-09-16T17:29:06.329Z,99.90
2017-09-16T17:31:33.893Z,99.90
2017-09-16T17:34:01.486Z,99.90
2017-09-16T17:36:29.079Z,99.90
2017-09-16T17:38:57.406Z,99.90
2017-09-16T17:41:24.994Z,99.90
2017-09-16T17:43:52.722Z,99.90
2017-09-16T17:46:20.319Z,99.90
2017-09-16T17:48:47.916Z,99.90
2017-09-16T17:51:16.294Z,99.90
2017-09-16T17:53:44.627Z,99.90
2017-09-16T17:56:12.192Z,99.90
2017-09-16T17:58:39.802Z,99.90
2017-09-16T18:01:08.143Z,99.90
2017-09-16T18:03:35.756Z,99.90
2017-09-16T18:06:03.343Z,99.90
2017-09-16T18:08:30.941Z,99.90
2017-09-16T18:10:58.515Z,99.90
2017-09-16T18:13:26.852Z,99.90
2017-09-16T18:18:47.339Z,99.90
2017-09-16T18:21:14.920Z,99.90
2017-09-16T18:23:42.636Z,99.90
2017-09-16T18:26:11.019Z,99.90
2017-09-16T18:28:39.349Z,99.90
2017-09-16T18:31:06.930Z,99.90
2017-09-16T18:33:34.523Z,99.90
2017-09-16T18:36:02.838Z,99.90
2017-09-16T18:38:30.454Z,99.90
2017-09-16T18:40:58.944Z,99.90
2017-09-16T18:43:26.530Z,99.90
2017-09-16T18:45:54.165Z,99.90
2017-09-16T18:48:21.756Z,99.90
2017-09-16T18:50:49.374Z,99.90
2017-09-16T18:53:16.946Z,99.90
2017-09-16T18:55:44.528Z,99.90
2017-09-16T18:58:12.874Z,99.90
2017-09-16T19:00:40.464Z,99.90
2017-09-16T19:03:08.810Z,99.90
2017-09-16T19:05:36.415Z,99.90
2017-09-16T19:08:04.753Z,99.90
2017-09-16T19:10:32.361Z,99.90
2017-09-16T19:12:59.987Z,99.90
2017-09-16T19:15:27.589Z,99.90
2017-09-16T19:17:55.198Z,99.90
2017-09-16T19:20:22.785Z,99.90
2017-09-16T19:22:51.272Z,99.90
2017-09-16T19:31:06.103Z,99.90
2017-09-16T19:33:33.695Z,99.90
2017-09-16T19:36:01.345Z,99.90
2017-09-16T19:38:28.937Z,99.90
2017-09-16T19:40:56.545Z,99.90
2017-09-16T19:43:24.128Z,99.90
2017-09-16T19:45:51.701Z,99.90
2017-09-16T19:48:19.311Z,99.90
2017-09-16T19:50:47.678Z,99.90
2017-09-16T19:53:15.295Z,99.90
2017-09-16T19:55:42.896Z,99.90
2017-09-16T19:58:10.524Z,99.90
2017-09-16T20:00:38.127Z,99.90
2017-09-16T20:03:05.859Z,99.90
2017-09-16T20:05:33.604Z,99.90
2017-09-16T20:08:01.195Z,99.90
2017-09-16T20:10:28.799Z,99.90
2017-09-16T20:12:57.163Z,99.90
2017-09-16T20:15:25.794Z,99.90
2017-09-16T20:17:53.397Z,99.90
2017-09-16T20:20:20.989Z,99.90
2017-09-16T20:22:49.327Z,99.90
2017-09-16T20:25:16.969Z,99.90
2017-09-16T20:27:44.538Z,99.90
2017-09-16T20:30:12.160Z,99.90
2017-09-16T20:32:39.742Z,99.90
2017-09-16T20:35:07.356Z,99.90
2017-09-16T20:37:34.951Z,99.90
2017-09-16T20:40:03.319Z,99.90
2017-09-16T20:42:30.903Z,99.90
2017-09-16T20:44:58.476Z,99.90
2017-09-16T20:47:26.174Z,99.90
2017-09-16T20:49:53.748Z,99.90
2017-09-16T20:52:21.321Z,99.90
2017-09-16T20:54:48.995Z,99.90
2017-09-16T20:57:18.077Z,99.90
2017-09-16T20:59:46.481Z,99.90
2017-09-16T21:02:14.816Z,99.90
2017-09-16T21:04:42.458Z,99.90
2017-09-16T21:07:10.071Z,99.90
2017-09-16T21:09:37.675Z,99.90
2017-09-16T21:12:05.298Z,99.90
2017-09-16T21:14:32.851Z,99.90
2017-09-16T21:17:01.243Z,99.90
2017-09-16T21:19:29.587Z,99.90
2017-09-16T21:21:57.182Z,99.90
2017-09-16T21:24:25.560Z,99.90
2017-09-16T21:26:53.928Z,99.90
2017-09-16T21:29:22.084Z,99.90
2017-09-16T21:31:49.677Z,99.90
2017-09-16T21:34:17.259Z,99.90
2017-09-16T21:36:44.850Z,99.90
2017-09-16T21:39:12.446Z,99.90
2017-09-16T21:41:40.046Z,99.90
2017-09-16T21:44:07.635Z,99.90
2017-09-16T21:46:35.448Z,99.90
2017-09-16T21:49:03.791Z,99.90
2017-09-16T21:54:40.082Z,99.90
2017-09-16T21:57:07.655Z,99.90
2017-09-16T21:59:47.844Z,99.90
2017-09-16T22:02:15.563Z,99.90
2017-09-16T22:04:43.174Z,99.90
2017-09-16T22:07:10.736Z,99.90
2017-09-16T22:09:39.133Z,99.90
2017-09-16T22:12:07.521Z,99.90
2017-09-16T22:14:35.108Z,99.90
2017-09-16T22:17:02.694Z,99.90
2017-09-16T22:19:30.281Z,99.90
2017-09-16T22:21:57.876Z,99.90
2017-09-16T22:24:25.455Z,99.90
2017-09-16T22:26:53.051Z,99.90
2017-09-16T22:29:21.416Z,99.90
2017-09-16T22:31:49.019Z,99.90
2017-09-16T22:34:18.240Z,99.90
2017-09-16T22:36:45.858Z,99.90
2017-09-16T22:39:13.450Z,99.90
2017-09-16T22:41:41.040Z,99.90
2017-09-16T22:44:08.881Z,99.90
2017-09-16T22:46:36.574Z,99.90
2017-09-16T22:49:04.145Z,99.90
2017-09-16T22:51:31.750Z,99.90
2017-09-16T22:53:59.306Z,99.90
2017-09-16T22:56:27.660Z,99.90
2017-09-16T22:58:55.325Z,99.90
2017-09-16T23:01:22.921Z,99.90
2017-09-16T23:03:51.291Z,99.90
2017-09-16T23:06:19.639Z,99.90
2017-09-16T23:08:47.263Z,99.90
2017-09-16T23:11:14.880Z,99.90
2017-09-16T23:13:42.504Z,99.90
2017-09-16T23:16:10.068Z,99.90
2017-09-16T23:18:37.636Z,99.90
2017-09-16T23:21:05.241Z,99.90
2017-09-16T23:23:32.884Z,99.90
2017-09-16T23:26:01.546Z,99.90
2017-09-16T23:28:29.159Z,99.90
2017-09-16T23:30:56.730Z,99.90
2017-09-16T23:33:25.061Z,99.90
2017-09-16T23:35:52.634Z,99.90
2017-09-16T23:38:20.249Z,99.90
2017-09-16T23:40:47.807Z,99.90
2017-09-16T23:43:15.367Z,99.90
2017-09-16T23:45:42.958Z,99.90
2017-09-16T23:48:10.547Z,99.90
2017-09-16T23:50:38.159Z,99.90
2017-09-16T23:53:05.714Z,99.90
2017-09-16T23:55:33.285Z,99.90
2017-09-16T23:58:00.867Z,99.90
